createdAt,value
2018-04-16T00:01:02.305Z,22.70
2018-04-16T00:03:29.859Z,21.30
2018-04-16T00:05:57.458Z,23.07
2018-04-16T00:08:25.219Z,23.07
2018-04-16T00:10:52.833Z,22.60
2018-04-16T00:13:20.778Z,23.03
2018-04-16T00:15:48.333Z,23.10
2018-04-16T00:18:16.019Z,23.00
2018-04-16T00:20:43.581Z,21.37
2018-04-16T00:23:11.122Z,20.90
2018-04-16T00:25:38.719Z,20.27
2018-04-16T00:28:06.311Z,22.43
2018-04-16T00:30:33.887Z,21.23
2018-04-16T00:33:07.147Z,19.60
2018-04-16T00:35:40.566Z,18.20
2018-04-16T00:38:13.817Z,20.80
2018-04-16T00:40:47.130Z,19.50
2018-04-16T00:43:20.125Z,20.03
2018-04-16T00:45:53.229Z,19.70
2018-04-16T00:48:26.428Z,18.20
2018-04-16T00:50:59.586Z,17.87
2018-04-16T00:53:44.909Z,18.70
2018-04-16T00:56:18.009Z,17.60
2018-04-16T00:58:51.448Z,16.37
2018-04-16T01:01:24.433Z,16.67
2018-04-16T01:03:57.884Z,17.07
2018-04-16T01:06:31.049Z,16.50
2018-04-16T01:09:04.189Z,14.60
2018-04-16T01:11:37.229Z,15.90
2018-04-16T01:14:10.366Z,15.33
2018-04-16T01:16:43.613Z,16.73
2018-04-16T01:19:16.886Z,16.10
2018-04-16T01:21:50.069Z,16.07
2018-04-16T01:24:23.290Z,14.30
2018-04-16T01:26:56.388Z,14.97
2018-04-16T01:29:29.501Z,15.60
2018-04-16T01:32:02.657Z,15.20
2018-04-16T01:34:35.805Z,17.10
2018-04-16T01:37:09.229Z,17.03
2018-04-16T01:42:49.767Z,16.03
2018-04-16T01:45:22.938Z,15.27
2018-04-16T01:47:56.473Z,16.37
2018-04-16T01:50:29.723Z,17.00
2018-04-16T01:53:02.833Z,16.43
2018-04-16T01:55:36.393Z,16.30
2018-04-16T01:58:09.567Z,16.07
2018-04-16T02:00:42.804Z,16.30
2018-04-16T02:03:16.305Z,15.50
2018-04-16T02:05:49.513Z,16.23
2018-04-16T02:08:22.762Z,17.27
2018-04-16T02:13:57.895Z,18.50
2018-04-16T02:16:31.129Z,19.40
2018-04-16T02:19:04.199Z,17.73
2018-04-16T02:21:37.624Z,16.93
2018-04-16T02:24:11.137Z,18.17
2018-04-16T02:26:44.250Z,18.03
2018-04-16T02:29:17.598Z,17.73
2018-04-16T02:31:50.777Z,18.17
2018-04-16T02:34:24.197Z,17.53
2018-04-16T02:36:57.411Z,18.13
2018-04-16T02:39:30.781Z,19.97
2018-04-16T02:42:04.092Z,18.93
2018-04-16T02:44:37.289Z,19.13
2018-04-16T02:47:10.429Z,17.27
2018-04-16T02:49:43.912Z,18.23
2018-04-16T02:52:17.227Z,19.70
2018-04-16T02:54:50.498Z,20.80
2018-04-16T02:57:24.063Z,21.43
2018-04-16T02:59:57.249Z,20.50
2018-04-16T03:02:30.530Z,21.30
2018-04-16T03:05:03.537Z,20.93
2018-04-16T03:07:36.971Z,21.60
2018-04-16T03:10:10.177Z,21.00
2018-04-16T03:12:43.603Z,21.97
2018-04-16T03:15:16.870Z,22.97
2018-04-16T03:17:50.103Z,21.37
2018-04-16T03:20:23.203Z,20.90
2018-04-16T03:22:56.349Z,22.70
2018-04-16T03:25:29.678Z,22.57
2018-04-16T03:28:02.785Z,24.63
2018-04-16T03:30:36.054Z,23.70
2018-04-16T03:33:09.349Z,26.60
2018-04-16T03:35:42.727Z,24.60
2018-04-16T03:38:16.019Z,24.50
2018-04-16T03:40:49.176Z,24.90
2018-04-16T03:43:22.382Z,26.00
2018-04-16T03:45:55.458Z,24.03
2018-04-16T03:48:28.702Z,24.80
2018-04-16T03:51:01.980Z,23.20
2018-04-16T03:53:31.437Z,25.33
2018-04-16T03:56:00.606Z,24.20
2018-04-16T03:58:28.383Z,25.07
2018-04-16T04:00:55.975Z,25.60
2018-04-16T04:03:23.741Z,23.53
2018-04-16T04:05:51.548Z,25.83
2018-04-16T04:08:19.243Z,25.53
2018-04-16T04:10:46.817Z,24.70
2018-04-16T04:13:14.394Z,24.87
2018-04-16T04:15:41.984Z,22.97
2018-04-16T04:18:09.787Z,24.40
2018-04-16T04:20:37.338Z,22.50
2018-04-16T04:23:17.225Z,24.30
2018-04-16T04:25:56.839Z,24.40
2018-04-16T04:28:36.437Z,22.73
2018-04-16T04:31:03.985Z,23.70
2018-04-16T04:33:31.549Z,21.27
2018-04-16T04:35:59.345Z,22.13
2018-04-16T04:38:26.893Z,22.93
2018-04-16T04:40:54.474Z,21.90
2018-04-16T04:43:22.039Z,25.10
2018-04-16T04:45:50.164Z,24.27
2018-04-16T04:48:17.849Z,27.70
2018-04-16T04:50:45.511Z,27.93
2018-04-16T04:53:13.244Z,29.40
2018-04-16T04:55:40.828Z,26.33
2018-04-16T04:58:08.374Z,26.13
2018-04-16T05:00:35.977Z,25.87
2018-04-16T05:03:03.796Z,24.53
2018-04-16T05:05:31.348Z,24.67
2018-04-16T05:07:58.947Z,24.50
2018-04-16T05:10:26.503Z,22.37
2018-04-16T05:12:54.292Z,21.93
2018-04-16T05:15:21.879Z,21.27
2018-04-16T05:17:49.499Z,21.23
2018-04-16T05:20:17.234Z,21.47
2018-04-16T05:22:44.879Z,21.50
2018-04-16T05:25:12.670Z,21.50
2018-04-16T05:27:40.859Z,19.63
2018-04-16T05:30:08.534Z,20.23
2018-04-16T05:32:36.088Z,20.67
2018-04-16T05:35:03.697Z,19.70
2018-04-16T05:37:31.282Z,20.93
2018-04-16T05:39:58.861Z,18.77
2018-04-16T05:42:26.452Z,19.30
2018-04-16T05:44:54.024Z,19.57
2018-04-16T05:47:21.854Z,18.70
2018-04-16T05:49:49.454Z,19.10
2018-04-16T05:52:17.024Z,18.53
2018-04-16T05:54:44.878Z,20.03
2018-04-16T05:57:12.493Z,18.50
2018-04-16T05:59:40.129Z,19.60
2018-04-16T06:02:07.681Z,19.07
2018-04-16T06:04:35.482Z,20.37
2018-04-16T06:07:03.067Z,20.60
2018-04-16T06:09:30.615Z,20.20
2018-04-16T06:11:58.190Z,17.83
2018-04-16T06:14:25.784Z,18.10
2018-04-16T06:16:53.412Z,17.07
2018-04-16T06:19:20.990Z,16.70
2018-04-16T06:21:48.559Z,17.83
2018-04-16T06:24:16.338Z,16.63
2018-04-16T06:26:44.057Z,16.20
2018-04-16T06:29:11.677Z,14.20
2018-04-16T06:31:39.505Z,13.60
2018-04-16T06:34:07.282Z,11.90
2018-04-16T06:36:34.872Z,11.10
2018-04-16T06:39:02.438Z,11.80
2018-04-16T06:41:30.068Z,11.40
2018-04-16T06:43:57.879Z,10.03
2018-04-16T06:46:25.442Z,10.53
2018-04-16T06:48:53.028Z,9.83
2018-04-16T06:51:20.695Z,10.70
2018-04-16T06:53:48.890Z,10.80
2018-04-16T06:56:16.674Z,10.40
2018-04-16T06:58:44.221Z,10.50
2018-04-16T07:01:11.959Z,10.40
2018-04-16T07:03:39.695Z,9.83
2018-04-16T07:06:07.482Z,9.37
2018-04-16T07:08:35.253Z,7.33
2018-04-16T07:11:02.901Z,7.30
2018-04-16T07:13:30.492Z,7.70
2018-04-16T07:15:58.116Z,7.90
2018-04-16T07:18:25.708Z,8.10
2018-04-16T07:20:53.315Z,8.30
2018-04-16T07:23:20.996Z,8.77
2018-04-16T07:25:48.677Z,8.07
2018-04-16T07:28:16.346Z,8.40
2018-04-16T07:30:44.123Z,8.33
2018-04-16T07:33:11.681Z,8.07
2018-04-16T07:35:39.380Z,7.80
2018-04-16T07:38:06.956Z,8.10
2018-04-16T07:40:34.682Z,8.13
2018-04-16T07:43:02.254Z,8.33
2018-04-16T07:45:29.851Z,8.30
2018-04-16T07:47:57.421Z,8.10
2018-04-16T07:50:24.986Z,9.17
2018-04-16T07:52:52.559Z,9.90
2018-04-16T07:55:20.126Z,9.50
2018-04-16T07:57:47.693Z,10.20
2018-04-16T08:00:15.302Z,10.00
2018-04-16T08:02:42.842Z,9.50
2018-04-16T08:05:10.385Z,9.70
2018-04-16T08:07:37.975Z,10.90
2018-04-16T08:10:05.539Z,10.77
2018-04-16T08:12:33.160Z,12.00
2018-04-16T08:15:00.781Z,10.10
2018-04-16T08:17:28.632Z,10.10
2018-04-16T08:19:56.202Z,10.80
2018-04-16T08:22:23.982Z,9.33
2018-04-16T08:24:51.548Z,11.57
2018-04-16T08:27:19.248Z,11.70
2018-04-16T08:29:46.869Z,13.10
2018-04-16T08:32:14.579Z,11.40
2018-04-16T08:34:42.361Z,12.10
2018-04-16T08:37:09.921Z,12.00
2018-04-16T08:39:37.504Z,12.47
2018-04-16T08:42:05.152Z,13.37
2018-04-16T08:44:32.741Z,11.17
2018-04-16T08:47:00.296Z,12.33
2018-04-16T08:49:27.898Z,13.37
2018-04-16T08:51:55.541Z,12.00
2018-04-16T08:54:23.357Z,11.70
2018-04-16T08:56:51.204Z,9.37
2018-04-16T08:59:18.765Z,11.07
2018-04-16T09:01:46.330Z,11.50
2018-04-16T09:04:13.922Z,11.03
2018-04-16T09:06:41.493Z,9.57
2018-04-16T09:09:09.210Z,11.27
2018-04-16T09:11:37.006Z,11.70
2018-04-16T09:14:04.562Z,9.33
2018-04-16T09:16:32.199Z,10.20
2018-04-16T09:18:59.816Z,9.60
2018-04-16T09:21:27.363Z,8.80
2018-04-16T09:23:54.952Z,10.40
2018-04-16T09:26:22.522Z,10.97
2018-04-16T09:28:50.305Z,11.30
2018-04-16T09:31:17.882Z,12.23
2018-04-16T09:33:45.465Z,12.40
2018-04-16T09:36:13.255Z,12.33
2018-04-16T09:38:40.969Z,13.20
2018-04-16T09:41:08.680Z,13.47
2018-04-16T09:43:36.463Z,12.90
2018-04-16T09:46:04.028Z,13.40
2018-04-16T09:48:32.224Z,15.37
2018-04-16T09:50:59.778Z,15.10
2018-04-16T09:53:27.349Z,15.60
2018-04-16T09:55:55.067Z,16.17
2018-04-16T09:58:22.632Z,15.00
2018-04-16T10:00:52.006Z,16.23
2018-04-16T10:03:19.603Z,14.63
2018-04-16T10:05:48.207Z,12.47
2018-04-16T10:08:15.921Z,14.63
2018-04-16T10:10:43.474Z,15.40
2018-04-16T10:13:11.047Z,15.07
2018-04-16T10:15:38.693Z,16.00
2018-04-16T10:18:06.296Z,14.50
2018-04-16T10:20:34.032Z,15.93
2018-04-16T10:23:01.707Z,16.27
2018-04-16T10:25:29.918Z,17.30
2018-04-16T10:27:57.695Z,16.37
2018-04-16T10:30:25.280Z,16.97
2018-04-16T10:32:52.856Z,18.87
2018-04-16T10:35:20.411Z,16.57
2018-04-16T10:37:48.113Z,15.00
2018-04-16T10:40:15.659Z,13.37
2018-04-16T10:42:43.447Z,13.13
2018-04-16T10:45:11.023Z,13.77
2018-04-16T10:47:38.798Z,13.60
2018-04-16T10:50:06.342Z,14.50
2018-04-16T10:52:33.919Z,12.93
2018-04-16T10:55:01.721Z,13.70
2018-04-16T10:57:29.370Z,12.40
2018-04-16T10:59:56.989Z,13.37
2018-04-16T11:02:24.693Z,11.60
2018-04-16T11:04:52.267Z,12.20
2018-04-16T11:07:19.858Z,12.17
2018-04-16T11:09:47.671Z,10.50
2018-04-16T11:12:15.272Z,8.77
2018-04-16T11:14:42.978Z,9.60
2018-04-16T11:17:10.554Z,10.27
2018-04-16T11:19:38.137Z,9.10
2018-04-16T11:22:05.684Z,6.77
2018-04-16T11:24:33.271Z,7.60
2018-04-16T11:27:01.097Z,7.17
2018-04-16T11:29:28.930Z,7.90
2018-04-16T11:31:56.494Z,7.40
2018-04-16T11:34:24.052Z,7.50
2018-04-16T11:36:51.840Z,7.10
2018-04-16T11:39:19.394Z,8.03
2018-04-16T11:41:47.147Z,7.40
2018-04-16T11:44:14.730Z,8.10
2018-04-16T11:46:42.285Z,7.60
2018-04-16T11:49:09.992Z,5.73
2018-04-16T11:51:37.535Z,7.80
2018-04-16T11:54:05.322Z,7.60
2018-04-16T11:56:32.891Z,8.23
2018-04-16T11:59:00.468Z,7.73
2018-04-16T12:01:28.470Z,6.63
2018-04-16T12:03:56.030Z,6.70
2018-04-16T12:06:23.600Z,5.07
2018-04-16T12:08:51.371Z,5.00
2018-04-16T12:11:19.159Z,5.03
2018-04-16T12:13:46.968Z,4.57
2018-04-16T12:16:14.538Z,4.27
2018-04-16T12:18:42.109Z,5.60
2018-04-16T12:21:09.670Z,4.73
2018-04-16T12:23:37.215Z,5.47
2018-04-16T12:26:04.968Z,5.87
2018-04-16T12:28:32.506Z,6.53
2018-04-16T12:31:00.350Z,8.67
2018-04-16T12:33:27.896Z,6.17
2018-04-16T12:35:55.633Z,6.10
2018-04-16T12:38:23.382Z,6.10
2018-04-16T12:40:50.960Z,6.40
2018-04-16T12:43:18.666Z,6.53
2018-04-16T12:45:46.229Z,5.57
2018-04-16T12:48:13.784Z,5.13
2018-04-16T12:50:41.355Z,4.97
2018-04-16T12:53:08.896Z,4.80
2018-04-16T12:55:36.503Z,4.17
2018-04-16T12:58:04.070Z,4.80
2018-04-16T13:00:31.621Z,5.23
2018-04-16T13:02:59.420Z,4.73
2018-04-16T13:05:26.975Z,4.50
2018-04-16T13:07:54.708Z,3.70
2018-04-16T13:10:22.454Z,2.93
2018-04-16T13:12:50.040Z,2.47
2018-04-16T13:15:17.593Z,3.50
2018-04-16T13:17:45.286Z,3.17
2018-04-16T13:20:13.078Z,2.10
2018-04-16T13:22:40.828Z,2.83
2018-04-16T13:25:08.606Z,2.30
2018-04-16T13:27:36.160Z,2.60
2018-04-16T13:30:03.957Z,2.67
2018-04-16T13:32:31.512Z,2.50
2018-04-16T13:34:59.093Z,3.30
2018-04-16T13:37:27.085Z,2.40
2018-04-16T13:39:54.866Z,2.40
2018-04-16T13:42:22.591Z,2.97
2018-04-16T13:44:50.422Z,2.63
2018-04-16T13:47:18.198Z,1.80
2018-04-16T13:49:45.770Z,2.37
2018-04-16T13:52:13.549Z,2.17
2018-04-16T13:54:41.252Z,2.53
2018-04-16T13:57:08.789Z,1.57
2018-04-16T13:59:36.326Z,1.80
2018-04-16T14:02:03.939Z,1.53
2018-04-16T14:04:31.501Z,2.70
2018-04-16T14:06:59.057Z,2.33
2018-04-16T14:09:26.659Z,1.83
2018-04-16T14:11:54.198Z,2.43
2018-04-16T14:14:22.017Z,2.40
2018-04-16T14:16:49.609Z,2.30
2018-04-16T14:19:17.145Z,1.83
2018-04-16T14:21:44.741Z,2.00
2018-04-16T14:24:12.300Z,2.60
2018-04-16T14:26:39.994Z,3.27
2018-04-16T14:29:07.770Z,1.73
2018-04-16T14:31:35.315Z,1.93
2018-04-16T14:34:02.891Z,2.20
2018-04-16T14:36:30.626Z,2.27
2018-04-16T14:38:58.189Z,2.60
2018-04-16T14:41:25.745Z,3.10
2018-04-16T14:43:53.343Z,3.47
2018-04-16T14:46:20.909Z,2.90
2018-04-16T14:48:48.824Z,2.90
2018-04-16T14:51:16.377Z,2.90
2018-04-16T14:53:43.924Z,2.83
2018-04-16T14:56:11.490Z,3.30
2018-04-16T14:58:39.265Z,2.03
2018-04-16T15:01:06.857Z,2.30
2018-04-16T15:03:34.475Z,3.60
2018-04-16T15:06:02.290Z,2.20
2018-04-16T15:08:30.270Z,2.57
2018-04-16T15:10:57.831Z,2.87
2018-04-16T15:13:25.379Z,2.47
2018-04-16T15:15:53.196Z,2.60
2018-04-16T15:18:21.126Z,2.20
2018-04-16T15:20:48.854Z,2.27
2018-04-16T15:23:16.418Z,3.27
2018-04-16T15:25:44.121Z,2.27
2018-04-16T15:28:11.843Z,2.40
2018-04-16T15:30:39.400Z,2.20
2018-04-16T15:33:06.976Z,2.20
2018-04-16T15:35:34.512Z,2.40
2018-04-16T15:38:02.106Z,2.50
2018-04-16T15:40:29.723Z,2.60
2018-04-16T15:42:57.456Z,2.93
2018-04-16T15:45:25.024Z,2.80
2018-04-16T15:47:52.558Z,2.80
2018-04-16T15:50:20.281Z,3.30
2018-04-16T15:52:47.841Z,3.93
2018-04-16T15:55:15.404Z,3.30
2018-04-16T15:57:42.966Z,4.23
2018-04-16T16:00:10.551Z,2.43
2018-04-16T16:02:38.090Z,2.63
2018-04-16T16:05:05.655Z,3.43
2018-04-16T16:07:33.672Z,3.30
2018-04-16T16:10:01.226Z,2.50
2018-04-16T16:12:28.777Z,3.00
2018-04-16T16:14:56.378Z,2.93
2018-04-16T16:17:24.163Z,3.47
2018-04-16T16:19:51.712Z,3.37
2018-04-16T16:22:19.344Z,3.00
2018-04-16T16:24:46.896Z,4.00
2018-04-16T16:27:14.665Z,2.80
2018-04-16T16:29:42.231Z,3.13
2018-04-16T16:32:10.015Z,3.00
2018-04-16T16:34:37.604Z,3.47
2018-04-16T16:37:05.185Z,2.83
2018-04-16T16:39:32.865Z,3.90
2018-04-16T16:42:00.435Z,3.40
2018-04-16T16:44:27.993Z,3.13
2018-04-16T16:46:55.580Z,3.20
2018-04-16T16:49:23.124Z,3.50
2018-04-16T16:51:50.909Z,3.10
2018-04-16T16:54:18.483Z,3.60
2018-04-16T16:56:46.059Z,2.60
2018-04-16T16:59:13.630Z,3.23
2018-04-16T17:01:41.405Z,2.90
2018-04-16T17:04:08.970Z,2.90
2018-04-16T17:06:36.523Z,3.80
2018-04-16T17:09:04.671Z,2.80
2018-04-16T17:11:32.417Z,2.50
2018-04-16T17:14:00.008Z,4.03
2018-04-16T17:16:27.579Z,2.37
2018-04-16T17:18:55.164Z,2.77
2018-04-16T17:21:22.733Z,4.33
2018-04-16T17:23:50.590Z,3.80
2018-04-16T17:26:18.181Z,3.07
2018-04-16T17:28:45.759Z,3.60
2018-04-16T17:31:13.310Z,4.10
2018-04-16T17:33:40.892Z,3.43
2018-04-16T17:36:08.435Z,3.90
2018-04-16T17:38:36.488Z,2.80
2018-04-16T17:41:04.138Z,3.30
2018-04-16T17:43:31.695Z,3.50
2018-04-16T17:45:59.309Z,2.90
2018-04-16T17:48:26.915Z,3.10
2018-04-16T17:50:54.508Z,4.83
2018-04-16T17:53:22.077Z,3.10
2018-04-16T17:55:49.779Z,3.40
2018-04-16T17:58:17.339Z,3.07
2018-04-16T18:00:44.889Z,2.63
2018-04-16T18:03:12.473Z,3.70
2018-04-16T18:05:40.077Z,2.60
2018-04-16T18:08:07.836Z,3.90
2018-04-16T18:10:35.376Z,3.07
2018-04-16T18:13:02.942Z,2.73
2018-04-16T18:15:30.762Z,2.83
2018-04-16T18:17:58.454Z,3.50
2018-04-16T18:20:26.002Z,2.77
2018-04-16T18:22:53.791Z,3.30
2018-04-16T18:25:21.392Z,3.13
2018-04-16T18:27:48.931Z,3.60
2018-04-16T18:30:16.510Z,2.80
2018-04-16T18:32:44.092Z,2.70
2018-04-16T18:35:11.716Z,2.80
2018-04-16T18:37:39.374Z,3.23
2018-04-16T18:40:06.927Z,3.00
2018-04-16T18:42:34.508Z,3.40
2018-04-16T18:45:02.538Z,3.23
2018-04-16T18:47:30.086Z,3.70
2018-04-16T18:49:57.808Z,2.60
2018-04-16T18:52:25.505Z,2.87
2018-04-16T18:54:53.051Z,4.63
2018-04-16T18:57:20.644Z,4.70
2018-04-16T18:59:48.652Z,3.63
2018-04-16T19:02:16.253Z,3.17
2018-04-16T19:04:43.818Z,2.90
2018-04-16T19:07:11.382Z,3.50
2018-04-16T19:09:39.143Z,4.00
2018-04-16T19:12:06.701Z,3.37
2018-04-16T19:14:34.703Z,2.93
2018-04-16T19:17:02.328Z,3.63
2018-04-16T19:19:29.884Z,2.97
2018-04-16T19:21:57.780Z,3.50
2018-04-16T19:24:25.531Z,4.40
2018-04-16T19:26:58.965Z,4.60
2018-04-16T19:29:26.541Z,3.80
2018-04-16T19:31:54.097Z,3.27
2018-04-16T19:34:27.506Z,3.63
2018-04-16T19:36:55.068Z,3.60
2018-04-16T19:39:22.606Z,3.33
2018-04-16T19:41:55.695Z,3.93
2018-04-16T19:44:23.272Z,3.23
2018-04-16T19:46:50.823Z,3.67
2018-04-16T19:49:24.066Z,4.00
2018-04-16T19:51:51.610Z,3.53
2018-04-16T19:54:19.192Z,3.27
2018-04-16T19:56:52.856Z,5.10
2018-04-16T19:59:20.591Z,3.73
2018-04-16T20:01:53.707Z,3.50
2018-04-16T20:04:21.259Z,3.10
2018-04-16T20:06:48.827Z,4.50
2018-04-16T20:09:16.408Z,3.77
2018-04-16T20:11:44.163Z,3.93
2018-04-16T20:14:11.799Z,3.40
2018-04-16T20:16:39.504Z,4.20
2018-04-16T20:19:07.049Z,3.60
2018-04-16T20:21:34.900Z,4.40
2018-04-16T20:24:02.438Z,3.53
2018-04-16T20:26:30.248Z,3.73
2018-04-16T20:28:57.950Z,5.10
2018-04-16T20:31:25.654Z,3.70
2018-04-16T20:33:53.195Z,4.30
2018-04-16T20:36:20.776Z,3.67
2018-04-16T20:38:48.349Z,4.50
2018-04-16T20:41:15.901Z,4.67
2018-04-16T20:43:43.904Z,3.40
2018-04-16T20:46:11.543Z,3.10
2018-04-16T20:48:39.097Z,3.23
2018-04-16T20:51:06.837Z,4.23
2018-04-16T20:53:34.380Z,3.93
2018-04-16T20:56:01.926Z,5.43
2018-04-16T20:58:29.508Z,4.03
2018-04-16T21:00:57.064Z,4.20
2018-04-16T21:03:24.669Z,4.87
2018-04-16T21:05:52.392Z,4.20
2018-04-16T21:08:19.945Z,4.63
2018-04-16T21:10:47.799Z,4.20
2018-04-16T21:13:15.342Z,4.90
2018-04-16T21:15:42.893Z,5.10
2018-04-16T21:18:10.468Z,4.83
2018-04-16T21:20:38.194Z,4.17
2018-04-16T21:23:05.997Z,3.77
2018-04-16T21:25:33.553Z,3.70
2018-04-16T21:28:01.099Z,4.70
2018-04-16T21:30:28.733Z,4.20
2018-04-16T21:32:56.289Z,4.53
2018-04-16T21:35:23.891Z,4.50
2018-04-16T21:37:51.716Z,3.40
2018-04-16T21:40:19.296Z,5.90
2018-04-16T21:42:46.838Z,4.23
2018-04-16T21:45:14.399Z,4.00
2018-04-16T21:47:41.977Z,4.83
2018-04-16T21:50:09.555Z,3.27
2018-04-16T21:52:37.141Z,3.93
2018-04-16T21:55:04.936Z,4.33
2018-04-16T21:57:32.522Z,3.60
2018-04-16T22:00:00.283Z,3.40
2018-04-16T22:02:27.828Z,3.97
2018-04-16T22:04:55.863Z,4.33
2018-04-16T22:07:23.619Z,4.27
2018-04-16T22:09:51.209Z,4.90
2018-04-16T22:12:19.073Z,2.93
2018-04-16T22:14:46.757Z,4.07
2018-04-16T22:17:14.315Z,4.00
2018-04-16T22:19:41.888Z,3.07
2018-04-16T22:22:09.674Z,4.20
2018-04-16T22:24:37.280Z,3.40
2018-04-16T22:27:04.871Z,3.40
2018-04-16T22:29:32.421Z,3.80
2018-04-16T22:32:00.201Z,4.00
2018-04-16T22:34:27.759Z,4.30
2018-04-16T22:36:55.309Z,4.40
2018-04-16T22:39:22.882Z,4.67
2018-04-16T22:41:50.445Z,3.87
2018-04-16T22:44:18.385Z,4.00
2018-04-16T22:46:45.944Z,3.20
2018-04-16T22:49:13.509Z,4.33
2018-04-16T22:51:41.107Z,4.00
2018-04-16T22:54:08.737Z,3.50
2018-04-16T22:56:36.306Z,4.50
2018-04-16T22:59:03.883Z,3.60
2018-04-16T23:01:31.771Z,4.20
2018-04-16T23:03:59.316Z,3.17
2018-04-16T23:06:27.036Z,3.70
2018-04-16T23:08:54.750Z,3.80
2018-04-16T23:11:22.298Z,4.53
2018-04-16T23:13:49.870Z,3.50
2018-04-16T23:16:17.424Z,4.00
2018-04-16T23:18:45.028Z,3.83
2018-04-16T23:21:12.575Z,3.70
2018-04-16T23:23:40.138Z,3.63
2018-04-16T23:26:08.011Z,3.80
2018-04-16T23:28:35.755Z,3.43
2018-04-16T23:31:03.318Z,3.60
2018-04-16T23:33:31.303Z,3.10
2018-04-16T23:35:59.120Z,3.10
2018-04-16T23:38:26.684Z,3.33
2018-04-16T23:40:54.813Z,3.90
2018-04-16T23:43:22.368Z,3.37
2018-04-16T23:45:50.097Z,3.83
2018-04-16T23:48:17.676Z,3.40
2018-04-16T23:50:45.252Z,2.80
2018-04-16T23:53:12.797Z,3.07
2018-04-16T23:55:40.380Z,3.60
2018-04-16T23:58:07.947Z,3.00
